createdAt,value
2022-08-20T00:00:30.192Z,12.80
2022-08-20T00:02:59.878Z,11.27
2022-08-20T00:05:30.301Z,11.00
2022-08-20T00:07:57.399Z,11.40
2022-08-20T00:10:27.537Z,10.93
2022-08-20T00:12:55.404Z,11.83
2022-08-20T00:15:25.558Z,12.07
2022-08-20T00:17:53.263Z,11.87
2022-08-20T00:20:23.075Z,12.27
2022-08-20T00:22:49.938Z,12.23
2022-08-20T00:25:17.351Z,11.57
2022-08-20T00:27:44.148Z,12.27
2022-08-20T00:30:12.246Z,12.27
2022-08-20T00:33:01.689Z,12.53
2022-08-20T00:35:31.484Z,12.00
2022-08-20T00:38:00.677Z,12.47
2022-08-20T00:40:43.938Z,12.10
2022-08-20T00:43:40.947Z,11.73
2022-08-20T00:46:20.172Z,11.97
2022-08-20T00:48:50.018Z,11.37
2022-08-20T00:51:46.143Z,11.40
2022-08-20T00:54:33.419Z,11.77
2022-08-20T00:57:05.261Z,11.00
2022-08-20T00:59:34.404Z,11.00
2022-08-20T01:02:02.005Z,10.80
2022-08-20T01:04:33.761Z,10.67
2022-08-20T01:07:01.765Z,9.63
2022-08-20T01:09:49.475Z,10.23
2022-08-20T01:12:15.767Z,10.00
2022-08-20T01:14:45.655Z,9.70
2022-08-20T01:17:19.782Z,10.03
2022-08-20T01:19:50.404Z,9.83
2022-08-20T01:22:43.264Z,8.57
2022-08-20T01:25:19.809Z,9.20
2022-08-20T01:27:47.035Z,9.20
2022-08-20T01:30:19.898Z,8.67
2022-08-20T01:32:46.681Z,8.70
2022-08-20T01:35:20.133Z,8.53
2022-08-20T01:37:46.784Z,9.60
2022-08-20T01:40:14.654Z,9.32
2022-08-20T01:42:52.781Z,9.80
2022-08-20T01:45:30.859Z,9.67
2022-08-20T01:47:58.376Z,10.23
2022-08-20T01:50:28.187Z,11.17
2022-08-20T01:53:19.124Z,10.87
2022-08-20T01:55:45.837Z,9.63
2022-08-20T01:58:12.587Z,10.13
2022-08-20T02:00:39.417Z,9.68
2022-08-20T02:03:07.830Z,10.80
2022-08-20T02:05:35.575Z,10.40
2022-08-20T02:08:02.704Z,10.87
2022-08-20T02:10:31.744Z,10.82
2022-08-20T02:13:00.366Z,10.10
2022-08-20T02:15:34.478Z,11.00
2022-08-20T02:18:08.016Z,11.53
2022-08-20T02:20:35.920Z,11.98
2022-08-20T02:23:03.493Z,11.77
2022-08-20T02:25:33.297Z,11.90
2022-08-20T02:28:02.826Z,11.15
2022-08-20T02:30:33.896Z,10.88
2022-08-20T02:33:02.070Z,10.63
2022-08-20T02:35:30.756Z,10.57
2022-08-20T02:37:58.211Z,9.53
2022-08-20T02:40:30.738Z,9.13
2022-08-20T02:42:59.917Z,10.37
2022-08-20T02:45:27.310Z,9.67
2022-08-20T02:47:55.750Z,9.07
2022-08-20T02:50:24.023Z,9.40
2022-08-20T02:52:51.876Z,9.03
2022-08-20T02:55:27.816Z,9.03
2022-08-20T02:58:00.361Z,9.50
2022-08-20T03:00:33.456Z,10.07
2022-08-20T03:03:06.794Z,10.00
2022-08-20T03:05:34.056Z,10.57
2022-08-20T03:08:00.908Z,9.73
2022-08-20T03:10:30.555Z,10.20
2022-08-20T03:12:57.257Z,10.87
2022-08-20T03:15:24.118Z,10.93
2022-08-20T03:17:50.864Z,10.23
2022-08-20T03:20:17.581Z,10.63
2022-08-20T03:22:50.493Z,11.60
2022-08-20T03:25:17.828Z,12.27
2022-08-20T03:27:45.299Z,11.00
2022-08-20T03:30:15.142Z,12.90
2022-08-20T03:32:42.114Z,11.73
2022-08-20T03:35:10.967Z,11.00
2022-08-20T03:37:38.033Z,11.40
2022-08-20T03:40:12.629Z,11.87
2022-08-20T03:42:40.558Z,13.67
2022-08-20T03:45:13.626Z,12.57
2022-08-20T03:47:42.805Z,11.70
2022-08-20T03:50:10.565Z,12.27
2022-08-20T03:52:41.634Z,13.18
2022-08-20T03:55:09.752Z,12.63
2022-08-20T03:57:36.531Z,11.95
2022-08-20T04:00:05.962Z,12.10
2022-08-20T04:02:33.472Z,12.15
2022-08-20T04:05:00.119Z,11.70
2022-08-20T04:07:27.060Z,12.37
2022-08-20T04:09:55.754Z,12.20
2022-08-20T04:12:23.894Z,13.13
2022-08-20T04:14:51.943Z,12.57
2022-08-20T04:17:19.997Z,14.47
2022-08-20T04:19:48.235Z,14.45
2022-08-20T04:22:14.980Z,13.47
2022-08-20T04:24:42.953Z,13.80
2022-08-20T04:27:10.809Z,12.67
2022-08-20T04:29:37.787Z,12.05
2022-08-20T04:32:06.333Z,12.03
2022-08-20T04:34:33.697Z,11.03
2022-08-20T04:37:00.403Z,11.77
2022-08-20T04:39:27.114Z,11.90
2022-08-20T04:41:53.900Z,11.87
2022-08-20T04:44:21.872Z,12.00
2022-08-20T04:46:48.778Z,11.57
2022-08-20T04:49:15.658Z,12.73
2022-08-20T04:51:42.388Z,12.47
2022-08-20T04:54:09.311Z,13.07
2022-08-20T04:56:39.761Z,13.27
2022-08-20T04:59:07.474Z,12.13
2022-08-20T05:01:34.868Z,12.73
2022-08-20T05:04:01.637Z,12.23
2022-08-20T05:06:31.594Z,12.23
2022-08-20T05:08:59.540Z,12.47
2022-08-20T05:11:33.692Z,13.60
2022-08-20T05:14:03.921Z,12.90
2022-08-20T05:16:30.681Z,13.10
2022-08-20T05:18:57.464Z,13.10
2022-08-20T05:21:24.290Z,13.37
2022-08-20T05:23:50.964Z,12.47
2022-08-20T05:26:20.516Z,12.47
2022-08-20T05:28:54.235Z,12.67
2022-08-20T05:31:32.093Z,12.13
2022-08-20T05:34:12.011Z,12.67
2022-08-20T05:36:45.525Z,13.20
2022-08-20T05:39:24.929Z,13.53
2022-08-20T05:41:51.648Z,13.80
2022-08-20T05:44:18.918Z,12.17
2022-08-20T05:46:46.840Z,13.37
2022-08-20T05:49:16.420Z,12.93
2022-08-20T05:51:43.701Z,12.60
2022-08-20T05:54:11.377Z,13.27
2022-08-20T05:56:38.206Z,13.10
2022-08-20T05:59:06.448Z,13.37
2022-08-20T06:01:34.621Z,13.30
2022-08-20T06:04:20.423Z,14.47
2022-08-20T06:06:47.791Z,15.17
2022-08-20T06:09:30.767Z,15.27
2022-08-20T06:11:59.623Z,14.47
2022-08-20T06:14:26.741Z,16.13
2022-08-20T06:16:57.892Z,16.13
2022-08-20T06:19:27.125Z,14.70
2022-08-20T06:22:17.301Z,15.00
2022-08-20T06:24:47.047Z,15.13
2022-08-20T06:27:16.270Z,14.70
2022-08-20T06:29:43.602Z,15.00
2022-08-20T06:32:10.587Z,15.80
2022-08-20T06:34:37.286Z,14.93
2022-08-20T06:37:16.136Z,18.70
2022-08-20T06:39:43.319Z,17.93
2022-08-20T06:42:10.073Z,17.20
2022-08-20T06:44:37.229Z,15.83
2022-08-20T06:47:04.613Z,15.60
2022-08-20T06:49:35.209Z,17.63
2022-08-20T06:52:03.992Z,16.40
2022-08-20T06:54:31.476Z,16.53
2022-08-20T06:56:58.160Z,16.17
2022-08-20T06:59:24.782Z,15.93
2022-08-20T07:01:51.629Z,15.37
2022-08-20T07:04:18.281Z,14.50
2022-08-20T07:06:44.920Z,14.40
2022-08-20T07:09:11.570Z,15.57
2022-08-20T07:11:38.324Z,14.07
2022-08-20T07:14:05.804Z,14.33
2022-08-20T07:16:32.578Z,14.70
2022-08-20T07:18:59.234Z,15.10
2022-08-20T07:21:25.902Z,14.43
2022-08-20T07:23:53.188Z,13.90
2022-08-20T07:26:20.145Z,12.60
2022-08-20T07:28:47.295Z,12.53
2022-08-20T07:31:34.841Z,12.80
2022-08-20T07:34:01.969Z,12.33
2022-08-20T07:36:30.078Z,13.77
2022-08-20T07:38:57.138Z,13.53
2022-08-20T07:41:24.153Z,12.97
2022-08-20T07:43:50.930Z,13.53
2022-08-20T07:46:20.801Z,16.97
2022-08-20T07:48:50.235Z,19.67
2022-08-20T07:51:19.306Z,21.57
2022-08-20T07:53:47.830Z,22.37
2022-08-20T07:56:19.412Z,23.07
2022-08-20T07:58:50.399Z,23.60
2022-08-20T08:01:18.915Z,24.30
2022-08-20T08:03:49.717Z,24.13
2022-08-20T08:06:29.990Z,24.77
2022-08-20T08:09:20.098Z,23.70
2022-08-20T08:11:50.383Z,24.87
2022-08-20T08:14:23.366Z,23.67
2022-08-20T08:16:50.547Z,23.77
2022-08-20T08:19:18.121Z,22.70
2022-08-20T08:21:44.914Z,21.27
2022-08-20T08:24:15.494Z,21.70
2022-08-20T08:26:46.149Z,21.53
2022-08-20T08:29:13.618Z,20.90
2022-08-20T08:31:41.402Z,19.73
2022-08-20T08:34:08.709Z,20.37
2022-08-20T08:36:35.727Z,20.43
2022-08-20T08:39:02.460Z,21.33
2022-08-20T08:41:38.160Z,21.63
2022-08-20T08:44:14.485Z,21.60
2022-08-20T08:46:45.633Z,21.47
2022-08-20T08:49:37.566Z,21.80
2022-08-20T08:52:14.834Z,20.80
2022-08-20T08:54:49.088Z,20.10
2022-08-20T08:57:16.933Z,20.13
2022-08-20T08:59:52.509Z,19.17
2022-08-20T09:02:33.783Z,18.60
2022-08-20T09:05:02.793Z,19.00
2022-08-20T09:07:32.581Z,18.33
2022-08-20T09:10:00.393Z,18.57
2022-08-20T09:12:28.059Z,18.53
2022-08-20T09:14:57.538Z,17.90
2022-08-20T09:17:24.567Z,16.27
2022-08-20T09:19:52.488Z,16.73
2022-08-20T09:22:21.777Z,17.13
2022-08-20T09:24:49.613Z,15.90
2022-08-20T09:27:16.303Z,15.43
2022-08-20T09:29:43.056Z,15.67
2022-08-20T09:32:16.295Z,14.93
2022-08-20T09:34:46.596Z,15.07
2022-08-20T09:37:14.571Z,14.73
2022-08-20T09:39:41.748Z,14.20
2022-08-20T09:42:15.594Z,16.60
2022-08-20T09:44:42.719Z,15.40
2022-08-20T09:47:09.698Z,15.93
2022-08-20T09:49:37.491Z,15.27
2022-08-20T09:52:10.010Z,14.40
2022-08-20T09:54:38.067Z,14.90
2022-08-20T09:57:06.938Z,15.63
2022-08-20T09:59:34.744Z,15.37
2022-08-20T10:02:01.668Z,15.57
2022-08-20T10:04:28.633Z,14.97
2022-08-20T10:06:55.895Z,16.03
2022-08-20T10:09:23.070Z,14.57
2022-08-20T10:11:49.821Z,14.83
2022-08-20T10:14:16.518Z,15.33
2022-08-20T10:16:43.295Z,15.17
2022-08-20T10:19:10.029Z,14.43
2022-08-20T10:21:39.116Z,15.20
2022-08-20T10:24:06.208Z,14.90
2022-08-20T10:26:33.159Z,14.20
2022-08-20T10:28:59.889Z,14.30
2022-08-20T10:31:26.532Z,15.27
2022-08-20T10:33:53.241Z,15.83
2022-08-20T10:36:20.184Z,14.80
2022-08-20T10:38:48.704Z,13.30
2022-08-20T10:41:15.510Z,14.30
2022-08-20T10:43:42.232Z,13.77
2022-08-20T10:46:09.330Z,12.70
2022-08-20T10:48:36.039Z,14.20
2022-08-20T10:51:02.732Z,13.80
2022-08-20T10:53:29.806Z,14.40
2022-08-20T10:55:57.936Z,15.30
2022-08-20T10:58:25.775Z,14.73
2022-08-20T11:00:53.033Z,13.93
2022-08-20T11:03:20.339Z,14.90
2022-08-20T11:05:47.596Z,13.57
2022-08-20T11:08:14.276Z,13.77
2022-08-20T11:10:41.273Z,14.65
2022-08-20T11:13:08.749Z,13.10
2022-08-20T11:15:37.607Z,14.15
2022-08-20T11:18:04.667Z,14.63
2022-08-20T11:20:32.159Z,15.07
2022-08-20T11:22:59.044Z,16.50
2022-08-20T11:25:26.496Z,15.40
2022-08-20T11:27:55.010Z,16.40
2022-08-20T11:30:25.394Z,14.88
2022-08-20T11:32:52.222Z,13.65
2022-08-20T11:35:48.304Z,15.43
2022-08-20T11:38:10.693Z,15.35
2022-08-20T11:40:37.532Z,15.90
2022-08-20T11:43:14.809Z,14.43
2022-08-20T11:45:44.251Z,16.52
2022-08-20T11:48:11.090Z,15.98
2022-08-20T11:50:37.795Z,14.73
2022-08-20T11:53:04.491Z,14.60
2022-08-20T11:55:32.642Z,15.18
2022-08-20T11:58:00.703Z,15.98
2022-08-20T12:00:32.106Z,14.65
2022-08-20T12:03:05.439Z,15.35
2022-08-20T12:05:33.443Z,14.73
2022-08-20T12:08:04.577Z,13.45
2022-08-20T12:10:31.780Z,14.50
2022-08-20T12:13:02.535Z,14.15
2022-08-20T12:15:33.860Z,13.95
2022-08-20T12:18:01.401Z,13.77
2022-08-20T12:20:35.728Z,13.30
2022-08-20T12:23:02.484Z,12.82
2022-08-20T12:25:29.836Z,12.55
2022-08-20T12:27:56.881Z,13.38
2022-08-20T12:30:24.509Z,12.85
2022-08-20T12:32:51.670Z,12.98
2022-08-20T12:35:20.004Z,12.63
2022-08-20T12:37:49.562Z,11.95
2022-08-20T12:40:32.449Z,12.23
2022-08-20T12:43:14.295Z,12.52
2022-08-20T12:45:43.864Z,10.43
2022-08-20T12:48:14.360Z,10.15
2022-08-20T12:50:49.265Z,10.68
2022-08-20T12:53:16.625Z,10.45
2022-08-20T12:55:43.315Z,10.68
2022-08-20T12:58:10.707Z,10.88
2022-08-20T13:00:50.363Z,9.55
2022-08-20T13:03:18.282Z,9.75
2022-08-20T13:05:47.564Z,7.25
2022-08-20T13:08:14.541Z,6.20
2022-08-20T13:10:52.186Z,5.88
2022-08-20T13:13:20.341Z,4.93
2022-08-20T13:15:51.322Z,5.40
2022-08-20T13:18:18.238Z,5.10
2022-08-20T13:20:45.008Z,5.07
2022-08-20T13:23:11.837Z,5.55
2022-08-20T13:25:41.705Z,5.30
2022-08-20T13:28:08.457Z,5.53
2022-08-20T13:30:45.059Z,5.55
2022-08-20T13:33:11.757Z,4.80
2022-08-20T13:35:40.996Z,4.90
2022-08-20T13:38:08.373Z,4.50
2022-08-20T13:40:35.080Z,4.70
2022-08-20T13:43:06.466Z,4.13
2022-08-20T13:45:33.744Z,4.13
2022-08-20T13:48:00.457Z,4.30
2022-08-20T13:50:33.176Z,4.35
2022-08-20T13:52:59.941Z,3.42
2022-08-20T13:55:28.225Z,4.03
2022-08-20T13:57:57.015Z,3.85
2022-08-20T14:00:31.733Z,3.78
2022-08-20T14:03:02.850Z,3.58
2022-08-20T14:05:31.897Z,3.55
2022-08-20T14:08:19.343Z,3.60
2022-08-20T14:10:51.380Z,3.53
2022-08-20T14:13:21.948Z,3.45
2022-08-20T14:15:48.664Z,3.65
2022-08-20T14:18:18.576Z,3.55
2022-08-20T14:20:45.935Z,3.50
2022-08-20T14:23:16.943Z,3.53
2022-08-20T14:25:48.179Z,3.10
2022-08-20T14:28:18.559Z,3.13
2022-08-20T14:30:46.235Z,3.03
2022-08-20T14:33:19.760Z,3.10
2022-08-20T14:35:46.488Z,2.88
2022-08-20T14:38:13.276Z,2.88
2022-08-20T14:40:40.134Z,3.00
2022-08-20T14:43:06.903Z,2.90
2022-08-20T14:45:34.196Z,3.08
2022-08-20T14:48:03.391Z,3.15
2022-08-20T14:50:33.789Z,3.00
2022-08-20T14:53:01.387Z,2.90
2022-08-20T14:55:31.122Z,3.58
2022-08-20T14:57:58.346Z,3.05
2022-08-20T15:00:27.868Z,3.20
2022-08-20T15:02:55.183Z,3.00
2022-08-20T15:05:22.208Z,2.67
2022-08-20T15:07:51.823Z,2.70
2022-08-20T15:10:26.846Z,2.80
2022-08-20T15:12:53.792Z,2.80
2022-08-20T15:15:23.306Z,2.72
2022-08-20T15:17:55.282Z,2.78
2022-08-20T15:20:25.106Z,3.10
2022-08-20T15:22:52.206Z,2.83
2022-08-20T15:25:21.187Z,2.80
2022-08-20T15:27:48.759Z,3.08
2022-08-20T15:30:19.356Z,2.40
2022-08-20T15:32:47.776Z,2.63
2022-08-20T15:35:16.126Z,2.58
2022-08-20T15:37:48.269Z,2.38
2022-08-20T15:40:19.538Z,2.80
2022-08-20T15:42:50.179Z,2.67
2022-08-20T15:45:21.628Z,2.70
2022-08-20T15:48:10.883Z,2.40
2022-08-20T15:51:14.812Z,2.40
2022-08-20T15:54:00.582Z,2.50
2022-08-20T15:56:46.536Z,2.47
2022-08-20T15:59:28.412Z,2.55
2022-08-20T16:02:22.577Z,2.15
2022-08-20T16:04:51.783Z,2.30
2022-08-20T16:07:25.220Z,2.28
2022-08-20T16:10:01.387Z,2.08
2022-08-20T16:12:37.159Z,2.30
2022-08-20T16:15:21.864Z,2.40
2022-08-20T16:17:58.159Z,2.28
2022-08-20T16:20:35.292Z,2.80
2022-08-20T16:23:03.138Z,2.70
2022-08-20T16:25:54.248Z,2.25
2022-08-20T16:28:28.159Z,2.38
2022-08-20T16:31:05.937Z,2.42
2022-08-20T16:34:01.530Z,2.35
2022-08-20T16:36:35.332Z,2.50
2022-08-20T16:39:05.701Z,2.45
2022-08-20T16:41:38.187Z,2.45
2022-08-20T16:44:17.611Z,2.47
2022-08-20T16:46:53.573Z,2.50
2022-08-20T16:49:23.066Z,2.60
2022-08-20T16:51:52.218Z,2.47
2022-08-20T16:54:29.394Z,2.80
2022-08-20T16:57:04.110Z,3.22
2022-08-20T16:59:30.817Z,3.00
2022-08-20T17:02:11.366Z,2.75
2022-08-20T17:05:06.599Z,2.70
2022-08-20T17:07:46.759Z,2.80
2022-08-20T17:10:26.507Z,3.17
2022-08-20T17:12:56.652Z,2.72
2022-08-20T17:15:33.980Z,2.95
2022-08-20T17:18:22.520Z,3.10
2022-08-20T17:20:49.308Z,3.00
2022-08-20T17:23:18.493Z,3.03
2022-08-20T17:25:52.597Z,2.75
2022-08-20T17:28:21.544Z,3.83
2022-08-20T17:30:50.877Z,3.17
2022-08-20T17:33:29.815Z,3.25
2022-08-20T17:36:17.833Z,3.33
2022-08-20T17:38:53.329Z,3.10
2022-08-20T17:41:24.130Z,3.03
2022-08-20T17:44:02.418Z,3.00
2022-08-20T17:46:42.482Z,3.20
2022-08-20T17:49:11.086Z,3.10
2022-08-20T17:51:42.445Z,3.00
2022-08-20T17:54:20.624Z,3.28
2022-08-20T17:56:50.729Z,3.30
2022-08-20T18:00:00.226Z,3.38
2022-08-20T18:02:20.122Z,3.30
2022-08-20T18:04:47.522Z,3.10
2022-08-20T18:07:24.475Z,2.80
2022-08-20T18:10:09.715Z,3.40
2022-08-20T18:12:40.964Z,3.53
2022-08-20T18:15:23.800Z,3.53
2022-08-20T18:18:21.715Z,3.00
2022-08-20T18:21:26.149Z,3.45
2022-08-20T18:24:06.585Z,3.03
2022-08-20T18:26:44.660Z,3.28
2022-08-20T18:29:14.931Z,3.20
2022-08-20T18:31:48.745Z,2.90
2022-08-20T18:34:21.915Z,3.20
2022-08-20T18:37:01.814Z,2.92
2022-08-20T18:39:37.385Z,3.20
2022-08-20T18:42:06.579Z,3.08
2022-08-20T18:44:45.121Z,3.35
2022-08-20T18:47:32.759Z,3.17
2022-08-20T18:49:59.696Z,3.25
2022-08-20T18:52:29.743Z,3.30
2022-08-20T18:55:01.688Z,3.15
2022-08-20T18:57:41.127Z,3.28
2022-08-20T19:00:13.786Z,3.20
2022-08-20T19:02:53.826Z,3.08
2022-08-20T19:05:28.223Z,3.55
2022-08-20T19:07:56.546Z,3.50
2022-08-20T19:10:27.679Z,3.50
2022-08-20T19:13:14.168Z,3.88
2022-08-20T19:15:50.811Z,3.67
2022-08-20T19:18:23.460Z,3.03
2022-08-20T19:21:01.017Z,4.20
2022-08-20T19:23:37.285Z,3.70
2022-08-20T19:26:07.603Z,3.33
2022-08-20T19:28:55.375Z,2.80
2022-08-20T19:31:26.177Z,3.40
2022-08-20T19:34:19.925Z,3.20
2022-08-20T19:36:59.120Z,3.13
2022-08-20T19:39:30.302Z,3.20
2022-08-20T19:42:05.996Z,3.20
2022-08-20T19:44:41.137Z,2.85
2022-08-20T19:47:19.457Z,3.30
2022-08-20T19:50:29.965Z,3.20
2022-08-20T19:53:14.426Z,3.03
2022-08-20T19:55:41.442Z,3.22
2022-08-20T19:58:18.844Z,3.20
2022-08-20T20:00:55.261Z,3.40
2022-08-20T20:03:29.458Z,3.67
2022-08-20T20:06:16.150Z,3.50
2022-08-20T20:09:00.174Z,3.33
2022-08-20T20:11:35.910Z,3.13
2022-08-20T20:14:07.101Z,3.03
2022-08-20T20:16:35.038Z,2.85
2022-08-20T20:19:25.251Z,2.97
2022-08-20T20:22:01.654Z,3.58
2022-08-20T20:24:31.354Z,2.50
2022-08-20T20:26:59.410Z,2.80
2022-08-20T20:29:34.367Z,2.83
2022-08-20T20:32:02.802Z,3.30
2022-08-20T20:34:39.935Z,3.38
2022-08-20T20:37:48.954Z,2.90
2022-08-20T20:40:26.200Z,3.05
2022-08-20T20:43:06.587Z,2.50
2022-08-20T20:45:42.054Z,2.57
2022-08-20T20:48:21.803Z,2.90
2022-08-20T20:50:49.346Z,2.80
2022-08-20T20:53:50.941Z,2.50
2022-08-20T20:56:34.515Z,2.80
2022-08-20T20:59:06.084Z,3.00
2022-08-20T21:01:48.766Z,2.73
2022-08-20T21:04:21.553Z,3.07
2022-08-20T21:06:48.473Z,2.93
2022-08-20T21:09:15.722Z,3.00
2022-08-20T21:11:42.399Z,2.80
2022-08-20T21:14:09.046Z,2.80
2022-08-20T21:16:35.798Z,3.10
2022-08-20T21:19:05.554Z,2.70
2022-08-20T21:21:32.435Z,3.10
2022-08-20T21:23:59.271Z,2.97
2022-08-20T21:26:27.558Z,2.97
2022-08-20T21:28:54.242Z,3.20
2022-08-20T21:31:21.016Z,3.70
2022-08-20T21:33:47.657Z,3.77
2022-08-20T21:36:14.353Z,4.00
2022-08-20T21:38:41.042Z,4.23
2022-08-20T21:41:07.726Z,3.63
2022-08-20T21:43:34.414Z,4.07
2022-08-20T21:46:02.420Z,3.57
2022-08-20T21:48:30.023Z,3.43
2022-08-20T21:50:56.979Z,3.70
2022-08-20T21:53:23.681Z,3.13
2022-08-20T21:55:50.435Z,3.40
2022-08-20T21:58:18.380Z,3.53
2022-08-20T22:00:48.199Z,3.13
2022-08-20T22:03:15.819Z,3.30
2022-08-20T22:05:43.191Z,3.40
2022-08-20T22:08:10.546Z,3.70
2022-08-20T22:10:37.816Z,3.93
2022-08-20T22:13:04.539Z,3.53
2022-08-20T22:15:31.267Z,3.03
2022-08-20T22:17:57.952Z,3.03
2022-08-20T22:20:25.262Z,3.63
2022-08-20T22:22:51.962Z,3.57
2022-08-20T22:25:18.739Z,3.40
2022-08-20T22:27:45.989Z,3.70
2022-08-20T22:30:12.770Z,3.83
2022-08-20T22:32:52.383Z,3.77
2022-08-20T22:35:19.656Z,3.60
2022-08-20T22:37:46.506Z,3.87
2022-08-20T22:40:13.484Z,3.70
2022-08-20T22:42:40.293Z,3.73
2022-08-20T22:45:15.055Z,3.87
2022-08-20T22:47:42.741Z,4.20
2022-08-20T22:50:11.078Z,3.70
2022-08-20T22:52:40.025Z,3.70
2022-08-20T22:55:07.431Z,3.60
2022-08-20T22:57:36.414Z,3.40
2022-08-20T23:00:07.009Z,3.30
2022-08-20T23:02:33.727Z,3.50
2022-08-20T23:05:00.453Z,3.30
2022-08-20T23:07:27.133Z,3.13
2022-08-20T23:09:53.812Z,3.30
2022-08-20T23:12:20.440Z,3.30
2022-08-20T23:14:47.251Z,3.30
2022-08-20T23:17:18.102Z,3.07
2022-08-20T23:19:45.912Z,3.20
2022-08-20T23:22:12.876Z,3.20
2022-08-20T23:24:40.048Z,3.33
2022-08-20T23:27:07.177Z,3.63
2022-08-20T23:29:33.963Z,2.90
2022-08-20T23:32:00.784Z,3.15
2022-08-20T23:34:28.151Z,2.80
2022-08-20T23:36:56.381Z,3.40
2022-08-20T23:39:24.101Z,3.17
2022-08-20T23:41:50.919Z,3.10
2022-08-20T23:44:25.793Z,3.75
2022-08-20T23:46:59.750Z,3.30
2022-08-20T23:49:28.133Z,3.37
2022-08-20T23:51:54.884Z,3.17
2022-08-20T23:54:21.582Z,3.37
2022-08-20T23:56:48.297Z,3.20
2022-08-20T23:59:15.052Z,3.65
